Time;durP1;ratioP1;P1;durP2;ratioP2;P2;SDS_P1;SDS_P2;PMS_P1;PMS_P2;Temp;Humidity;BMP_temperature;BMP_pressure;BME280_temperature;BME280_humidity;BME280_pressure;Samples;Min_cycle;Max_cycle;Signal;HPM_P1;HPM_P2
2022/01/27 00:01:57;;;;;;;1999.90;999.90;;;3.00;99.90;;;;;;5072463;28;20237;-75
2022/01/27 00:04:31;;;;;;;1999.90;999.90;;;2.90;99.90;;;;;;5071971;28;20227;-75
2022/01/27 00:06:57;;;;;;;1999.90;999.90;;;2.90;99.90;;;;;;5072274;28;20175;-75
2022/01/27 00:12:07;;;;;;;1999.90;999.90;;;2.90;99.90;;;;;;5072161;28;20193;-74
2022/01/27 00:14:33;;;;;;;1999.90;999.90;;;2.90;99.90;;;;;;5071845;28;20167;-75
2022/01/27 00:17:02;;;;;;;1999.90;999.90;;;2.90;99.90;;;;;;5072004;28;20166;-74
2022/01/27 00:19:28;;;;;;;1999.90;999.90;;;2.90;99.90;;;;;;5054054;28;20813;-75
2022/01/27 00:21:54;;;;;;;1999.90;999.90;;;2.90;99.90;;;;;;5072056;28;20260;-75
2022/01/27 00:24:20;;;;;;;1999.90;999.90;;;2.80;99.90;;;;;;5071668;28;20167;-75
2022/01/27 00:26:46;;;;;;;1999.90;999.90;;;2.80;99.90;;;;;;5071919;28;20182;-75
2022/01/27 00:29:11;;;;;;;1999.90;999.90;;;2.80;99.90;;;;;;5071820;28;20282;-75
2022/01/27 00:31:37;;;;;;;1999.90;999.90;;;2.80;99.90;;;;;;5071852;28;20249;-74
2022/01/27 00:34:04;;;;;;;1999.90;999.90;;;2.80;99.90;;;;;;5071596;28;20508;-74
2022/01/27 00:36:33;;;;;;;1999.90;999.90;;;2.70;99.90;;;;;;5071926;28;20182;-75
2022/01/27 00:38:59;;;;;;;1999.90;999.90;;;2.70;99.90;;;;;;5071701;28;20198;-75
2022/01/27 00:41:24;;;;;;;1999.90;999.90;;;2.80;99.90;;;;;;5071828;28;20163;-75
2022/01/27 00:43:50;;;;;;;1999.90;999.90;;;2.70;99.90;;;;;;5071741;28;20602;-75
2022/01/27 00:46:17;;;;;;;1999.90;999.90;;;2.70;99.90;;;;;;5071709;28;20190;-75
2022/01/27 00:48:45;;;;;;;1999.90;999.90;;;2.70;99.90;;;;;;5071563;28;20244;-74
2022/01/27 00:51:12;;;;;;;1999.90;999.90;;;2.70;99.90;;;;;;5071734;28;20163;-75
2022/01/27 00:56:17;;;;;;;1999.90;999.90;;;2.70;99.90;;;;;;5074445;28;20628;-74
2022/01/27 00:58:56;;;;;;;1999.90;999.90;;;2.80;99.90;;;;;;5075757;28;20212;-75
2022/01/27 01:01:26;;;;;;;1999.90;999.90;;;2.80;99.90;;;;;;5075674;28;20167;-75
2022/01/27 01:03:55;;;;;;;1999.90;999.90;;;2.80;99.90;;;;;;5075600;28;20170;-74
2022/01/27 01:06:34;;;;;;;1999.90;999.90;;;2.80;99.90;;;;;;5075386;28;20177;-75
2022/01/27 01:12:01;;;;;;;1999.90;999.90;;;2.80;99.90;;;;;;5075466;28;20543;-75
2022/01/27 01:17:00;;;;;;;1999.90;999.90;;;2.90;99.90;;;;;;5075371;28;20670;-75
2022/01/27 01:19:45;;;;;;;1999.90;999.90;;;2.90;99.90;;;;;;5075125;28;20220;-74
2022/01/27 01:33:04;;;;;;;1999.90;999.90;;;2.90;99.90;;;;;;5075186;28;20171;-75
2022/01/27 01:35:47;;;;;;;1999.90;999.90;;;2.90;99.90;;;;;;5074709;28;20155;-73
2022/01/27 01:38:17;;;;;;;1999.90;999.90;;;2.90;99.90;;;;;;5074987;28;20183;-76
2022/01/27 01:40:45;;;;;;;1999.90;999.90;;;2.90;99.90;;;;;;5074908;28;20167;-75
2022/01/27 01:43:10;;;;;;;1999.90;999.90;;;2.80;99.90;;;;;;5074889;28;20713;-74
2022/01/27 01:45:36;;;;;;;1999.90;999.90;;;2.90;99.90;;;;;;5074628;28;20182;-75
2022/01/27 01:48:02;;;;;;;1999.90;999.90;;;2.90;99.90;;;;;;5074554;28;20635;-75
2022/01/27 01:50:28;;;;;;;1999.90;999.90;;;2.90;99.90;;;;;;5074631;28;20167;-75
2022/01/27 01:52:54;;;;;;;1999.90;999.90;;;2.90;99.90;;;;;;5074708;28;20612;-75
2022/01/27 01:55:19;;;;;;;1999.90;999.90;;;2.90;99.90;;;;;;5074419;28;20605;-75
2022/01/27 01:57:45;;;;;;;1999.90;999.90;;;2.90;99.90;;;;;;5074576;28;20190;-74
2022/01/27 02:00:13;;;;;;;1999.90;999.90;;;2.90;99.90;;;;;;5074530;28;20195;-74
2022/01/27 02:02:40;;;;;;;1999.90;999.90;;;3.00;99.90;;;;;;5074445;28;20496;-75
2022/01/27 02:05:06;;;;;;;1999.90;999.90;;;3.10;99.90;;;;;;5074153;28;20175;-74
2022/01/27 02:18:16;;;;;;;1999.90;999.90;;;3.10;99.90;;;;;;5074202;28;20224;-75
2022/01/27 02:20:42;;;;;;;1999.90;999.90;;;3.10;99.90;;;;;;5074140;28;20246;-75
2022/01/27 02:23:09;;;;;;;1999.90;999.90;;;3.00;99.90;;;;;;5074170;28;20170;-74
2022/01/27 02:25:36;;;;;;;1999.90;999.90;;;3.10;99.90;;;;;;5073822;28;20212;-75
2022/01/27 02:28:02;;;;;;;1999.90;999.90;;;3.00;99.90;;;;;;5073868;28;20282;-74
2022/01/27 02:30:28;;;;;;;1999.90;999.90;;;3.10;99.90;;;;;;5074020;28;20167;-75
2022/01/27 02:32:54;;;;;;;1999.90;999.90;;;3.10;99.90;;;;;;5073932;28;20647;-75
2022/01/27 02:35:33;;;;;;;1999.90;999.90;;;3.10;99.90;;;;;;5073540;28;20187;-74
2022/01/27 02:37:59;;;;;;;1999.90;999.90;;;3.10;99.90;;;;;;5073716;28;20272;-75
2022/01/27 02:40:48;;;;;;;1999.90;999.90;;;3.00;99.90;;;;;;5073783;28;20175;-75
2022/01/27 02:43:13;;;;;;;1999.90;999.90;;;3.00;99.90;;;;;;5073758;28;20171;-75
2022/01/27 02:45:53;;;;;;;1999.90;999.90;;;3.00;99.90;;;;;;5073413;28;20169;-75
2022/01/27 02:48:19;;;;;;;1999.90;999.90;;;3.00;99.90;;;;;;5073322;28;20766;-74
2022/01/27 02:50:45;;;;;;;1999.90;999.90;;;3.00;99.90;;;;;;5073530;28;20290;-75
2022/01/27 02:53:11;;;;;;;1999.90;999.90;;;3.00;99.90;;;;;;5073503;28;20202;-75
2022/01/27 02:55:37;;;;;;;1999.90;999.90;;;3.00;99.90;;;;;;5073238;28;20167;-74
2022/01/27 02:58:04;;;;;;;1999.90;999.90;;;3.00;99.90;;;;;;5073353;28;20233;-73
2022/01/27 03:00:30;;;;;;;1999.90;999.90;;;3.00;99.90;;;;;;5073411;28;20259;-74
2022/01/27 03:02:56;;;;;;;1999.90;999.90;;;3.00;99.90;;;;;;5073362;28;20175;-74
2022/01/27 03:05:21;;;;;;;1999.90;999.90;;;3.00;99.90;;;;;;5073263;28;20509;-74
2022/01/27 03:07:48;;;;;;;1999.90;999.90;;;3.00;99.90;;;;;;5073098;28;20186;-74
2022/01/27 03:10:18;;;;;;;1999.90;999.90;;;3.00;99.90;;;;;;5073286;28;20159;-74
2022/01/27 03:12:45;;;;;;;1999.90;999.90;;;3.00;99.90;;;;;;5073386;28;20300;-74
2022/01/27 03:15:11;;;;;;;1999.90;999.90;;;3.10;99.90;;;;;;5072842;28;20159;-74
2022/01/27 03:17:38;;;;;;;1999.90;999.90;;;3.10;99.90;;;;;;5072737;28;20191;-74
2022/01/27 03:20:05;;;;;;;1999.90;999.90;;;3.10;99.90;;;;;;5072932;28;20170;-75
2022/01/27 03:22:31;;;;;;;1999.90;999.90;;;3.10;99.90;;;;;;5072977;28;20624;-74
2022/01/27 03:24:56;;;;;;;1999.90;999.90;;;3.10;99.90;;;;;;5072618;28;20250;-75
2022/01/27 03:27:25;;;;;;;1999.90;999.90;;;3.20;99.90;;;;;;5072790;28;20174;-74
2022/01/27 03:29:51;;;;;;;1999.90;999.90;;;3.30;99.90;;;;;;5072743;28;20337;-75
2022/01/27 03:32:17;;;;;;;1999.90;999.90;;;3.30;99.90;;;;;;5072775;28;20250;-75
2022/01/27 03:34:43;;;;;;;1999.90;999.90;;;3.30;99.90;;;;;;5072367;28;20506;-75
2022/01/27 03:37:08;;;;;;;1999.90;999.90;;;3.40;99.90;;;;;;5072790;28;20209;-75
2022/01/27 03:39:39;;;;;;;1999.90;999.90;;;3.40;99.90;;;;;;5072597;28;20191;-75
2022/01/27 03:42:06;;;;;;;1999.90;999.90;;;3.40;99.90;;;;;;5072606;28;20632;-75
2022/01/27 03:44:31;;;;;;;1999.90;999.90;;;3.50;99.90;;;;;;5072229;28;20258;-74
2022/01/27 03:46:58;;;;;;;1999.90;999.90;;;3.40;99.90;;;;;;5072551;28;20206;-73
2022/01/27 03:49:24;;;;;;;1999.90;999.90;;;3.50;99.90;;;;;;5072074;28;20207;-74
2022/01/27 03:51:50;;;;;;;1999.90;999.90;;;3.50;99.90;;;;;;5072387;28;20720;-74
2022/01/27 03:54:16;;;;;;;1999.90;999.90;;;3.60;99.90;;;;;;5072123;28;20831;-73
2022/01/27 03:56:41;;;;;;;1999.90;999.90;;;3.60;99.90;;;;;;5072398;28;20187;-75
2022/01/27 03:59:07;;;;;;;1999.90;999.90;;;3.60;99.90;;;;;;5072235;28;20930;-75
2022/01/27 04:01:33;;;;;;;1999.90;999.90;;;3.70;99.90;;;;;;5072379;28;20197;-75
2022/01/27 04:04:00;;;;;;;1999.90;999.90;;;3.80;99.90;;;;;;5053955;28;20175;-72
2022/01/27 04:06:39;;;;;;;1999.90;999.90;;;3.80;99.90;;;;;;5072144;28;20171;-74
2022/01/27 04:09:07;;;;;;;1999.90;999.90;;;3.80;99.90;;;;;;5072045;28;20233;-75
2022/01/27 04:11:33;;;;;;;1999.90;999.90;;;3.80;99.90;;;;;;5072186;28;20167;-74
2022/01/27 04:13:59;;;;;;;1999.90;999.90;;;3.80;99.90;;;;;;5072029;28;20598;-74
2022/01/27 04:16:24;;;;;;;1999.90;999.90;;;3.80;99.90;;;;;;5072099;28;20198;-76
2022/01/27 04:18:50;;;;;;;1999.90;999.90;;;3.90;99.90;;;;;;5071935;28;20197;-74
2022/01/27 04:21:16;;;;;;;1999.90;999.90;;;3.90;99.90;;;;;;5072073;28;20182;-75
2022/01/27 04:23:42;;;;;;;1999.90;999.90;;;3.90;99.90;;;;;;5071974;28;20167;-75
2022/01/27 04:26:09;;;;;;;1999.90;999.90;;;3.90;99.90;;;;;;5071712;28;20695;-74
2022/01/27 04:28:37;;;;;;;1999.90;999.90;;;3.90;99.90;;;;;;5071829;28;20452;-74
2022/01/27 04:31:06;;;;;;;1999.90;999.90;;;4.00;99.90;;;;;;5071314;28;20640;-74
2022/01/27 04:33:32;;;;;;;1999.90;999.90;;;4.00;99.90;;;;;;5071884;28;20163;-74
2022/01/27 04:36:01;;;;;;;1999.90;999.90;;;4.10;99.90;;;;;;5071585;28;20278;-74
2022/01/27 04:41:15;;;;;;;1999.90;999.90;;;4.10;99.90;;;;;;5071854;28;20175;-74
2022/01/27 04:44:12;;;;;;;1999.90;999.90;;;4.20;99.90;;;;;;5071801;28;20171;-74
2022/01/27 04:46:35;;;;;;;1999.90;999.90;;;4.20;99.90;;;;;;5071244;28;20202;-74
2022/01/27 04:49:03;;;;;;;1999.90;999.90;;;4.30;99.90;;;;;;5071556;28;20214;-74
2022/01/27 04:51:29;;;;;;;1999.90;999.90;;;4.30;99.90;;;;;;5071692;28;20189;-74
2022/01/27 04:54:12;;;;;;;1999.90;999.90;;;4.40;99.90;;;;;;5071568;28;20401;-74
2022/01/27 04:56:39;;;;;;;1999.90;999.90;;;4.40;99.90;;;;;;5071725;28;20170;-74
2022/01/27 04:59:13;;;;;;;1999.90;999.90;;;4.50;99.90;;;;;;5071570;28;20523;-74
2022/01/27 05:01:45;;;;;;;1999.90;999.90;;;4.50;99.90;;;;;;5071611;28;20659;-74
2022/01/27 05:04:14;;;;;;;1999.90;999.90;;;4.50;99.90;;;;;;5071344;28;20405;-74
2022/01/27 05:06:40;;;;;;;1999.90;999.90;;;4.60;99.90;;;;;;5071530;28;20608;-74
2022/01/27 05:09:06;;;;;;;1999.90;999.90;;;4.60;99.90;;;;;;5071402;28;20194;-74
2022/01/27 05:11:38;;;;;;;1999.90;999.90;;;4.60;99.90;;;;;;5071541;28;20238;-74
2022/01/27 05:14:14;;;;;;;1999.90;999.90;;;4.70;99.90;;;;;;5071245;28;20408;-74
2022/01/27 05:16:40;;;;;;;1999.90;999.90;;;4.70;99.90;;;;;;5071467;28;20177;-74
2022/01/27 05:19:06;;;;;;;1999.90;999.90;;;4.70;99.90;;;;;;5071342;28;20885;-74
2022/01/27 05:21:35;;;;;;;1999.90;999.90;;;4.70;99.90;;;;;;5053415;28;20217;-74
2022/01/27 05:24:04;;;;;;;1999.90;999.90;;;4.80;99.90;;;;;;5071179;28;20325;-74
2022/01/27 05:26:30;;;;;;;1999.90;999.90;;;4.80;99.90;;;;;;5071250;28;20500;-74
2022/01/27 05:28:56;;;;;;;1999.90;999.90;;;4.80;99.90;;;;;;5071248;28;20198;-74
2022/01/27 05:31:22;;;;;;;1999.90;999.90;;;4.80;99.90;;;;;;5071226;28;20171;-74
2022/01/27 05:33:48;;;;;;;1999.90;999.90;;;4.80;99.90;;;;;;5053374;28;20190;-74
2022/01/27 05:36:13;;;;;;;1999.90;999.90;;;4.80;99.90;;;;;;5071100;28;20171;-74
2022/01/27 05:38:39;;;;;;;1999.90;999.90;;;4.80;99.90;;;;;;5071196;28;20187;-74
2022/01/27 05:41:06;;;;;;;1999.90;999.90;;;4.80;99.90;;;;;;5072462;28;20246;-74
2022/01/27 05:43:32;;;;;;;1999.90;999.90;;;4.80;99.90;;;;;;5074888;28;20551;-75
2022/01/27 05:45:58;;;;;;;1999.90;999.90;;;4.90;99.90;;;;;;5074439;28;20193;-75
2022/01/27 05:48:24;;;;;;;1999.90;999.90;;;4.90;99.90;;;;;;5074949;28;20199;-74
2022/01/27 05:50:49;;;;;;;1999.90;999.90;;;4.90;99.90;;;;;;5074767;28;20171;-74
2022/01/27 05:53:15;;;;;;;1999.90;999.90;;;4.90;99.90;;;;;;5074680;28;20273;-74
2022/01/27 05:55:41;;;;;;;1999.90;999.90;;;5.00;99.90;;;;;;5074367;28;20170;-74
2022/01/27 05:58:07;;;;;;;1999.90;999.90;;;5.10;99.90;;;;;;5074576;28;20187;-74
2022/01/27 06:00:32;;;;;;;1999.90;999.90;;;5.10;99.90;;;;;;5074470;28;20630;-74
2022/01/27 06:02:58;;;;;;;1999.90;999.90;;;5.20;99.90;;;;;;5074550;28;20175;-74
2022/01/27 06:05:26;;;;;;;1999.90;999.90;;;5.30;99.90;;;;;;5074169;28;20663;-74
2022/01/27 06:07:52;;;;;;;1999.90;999.90;;;5.30;99.90;;;;;;5074330;28;20593;-74
2022/01/27 06:10:17;;;;;;;1999.90;999.90;;;5.40;99.90;;;;;;5074416;28;20455;-74
2022/01/27 06:12:56;;;;;;;1999.90;999.90;;;5.40;99.90;;;;;;5074325;28;20451;-74
2022/01/27 06:15:22;;;;;;;1999.90;999.90;;;5.40;99.90;;;;;;5073931;28;20186;-74
2022/01/27 06:17:48;;;;;;;1999.90;999.90;;;5.40;99.90;;;;;;5074316;28;20793;-74
2022/01/27 06:20:14;;;;;;;1999.90;999.90;;;5.40;99.90;;;;;;5074316;28;20413;-74
2022/01/27 06:22:41;;;;;;;1999.90;999.90;;;5.40;99.90;;;;;;5074213;28;20171;-74
2022/01/27 06:25:07;;;;;;;1999.90;999.90;;;5.30;99.90;;;;;;5073800;28;20405;-74
2022/01/27 06:27:33;;;;;;;1999.90;999.90;;;5.40;99.90;;;;;;5073939;28;20433;-74
2022/01/27 06:29:58;;;;;;;1999.90;999.90;;;5.40;99.90;;;;;;5073882;28;20949;-74
2022/01/27 06:32:24;;;;;;;1999.90;999.90;;;5.40;99.90;;;;;;5073956;28;20175;-74
2022/01/27 06:34:50;;;;;;;1999.90;999.90;;;5.30;99.90;;;;;;5073666;28;20242;-74
2022/01/27 06:37:15;;;;;;;1999.90;999.90;;;5.30;99.90;;;;;;5073848;28;20174;-74
2022/01/27 06:39:41;;;;;;;1999.90;999.90;;;5.30;99.90;;;;;;5073869;28;20182;-74
2022/01/27 06:42:09;;;;;;;1999.90;999.90;;;5.30;99.90;;;;;;5073810;28;20175;-74
2022/01/27 06:44:36;;;;;;;1999.90;999.90;;;5.30;99.90;;;;;;5073322;28;20549;-74
2022/01/27 06:47:01;;;;;;;1999.90;999.90;;;5.30;99.90;;;;;;5073726;28;20205;-74
2022/01/27 06:49:27;;;;;;;1999.90;999.90;;;5.30;99.90;;;;;;5073285;28;20497;-74
2022/01/27 06:51:53;;;;;;;1999.90;999.90;;;5.30;99.90;;;;;;5073540;28;20606;-74
2022/01/27 06:54:18;;;;;;;1999.90;999.90;;;5.30;99.90;;;;;;5072814;28;20171;-74
2022/01/27 06:56:45;;;;;;;1999.90;999.90;;;5.30;99.90;;;;;;5073503;28;20162;-74
2022/01/27 06:59:11;;;;;;;1999.90;999.90;;;5.40;99.90;;;;;;5073347;28;20244;-74
2022/01/27 07:01:36;;;;;;;1999.90;999.90;;;5.50;99.90;;;;;;5073368;28;20409;-74
2022/01/27 07:04:02;;;;;;;1999.90;999.90;;;5.50;99.90;;;;;;5073078;28;20175;-74
2022/01/27 07:06:28;;;;;;;1999.90;999.90;;;5.60;99.90;;;;;;5073246;28;20178;-74
2022/01/27 07:08:54;;;;;;;1999.90;999.90;;;5.60;99.90;;;;;;5073084;28;20831;-75
2022/01/27 07:11:19;;;;;;;1999.90;999.90;;;5.60;99.90;;;;;;5073271;28;20174;-75
2022/01/27 07:13:45;;;;;;;1999.90;999.90;;;5.60;99.90;;;;;;5073090;28;20163;-75
2022/01/27 07:16:11;;;;;;;1999.90;999.90;;;5.60;99.90;;;;;;5072884;28;20171;-74
2022/01/27 07:18:36;;;;;;;1999.90;999.90;;;5.60;99.90;;;;;;5073000;28;20565;-73
2022/01/27 07:21:03;;;;;;;1999.90;999.90;;;5.70;99.90;;;;;;5073053;28;20254;-75
2022/01/27 07:23:29;;;;;;;1999.90;999.90;;;5.70;99.90;;;;;;5072949;28;20594;-74
2022/01/27 07:25:55;;;;;;;1999.90;999.90;;;5.70;99.90;;;;;;5072591;28;20440;-74
2022/01/27 07:28:20;;;;;;;1999.90;999.90;;;5.70;99.90;;;;;;5072728;28;20199;-74
2022/01/27 07:30:46;;;;;;;1999.90;999.90;;;5.80;99.90;;;;;;5072813;28;21016;-75
2022/01/27 07:33:12;;;;;;;1999.90;999.90;;;5.70;99.90;;;;;;5072804;28;20178;-74
2022/01/27 07:35:38;;;;;;;1999.90;999.90;;;5.70;99.90;;;;;;5072783;28;20402;-74
2022/01/27 07:38:05;;;;;;;1999.90;999.90;;;5.80;99.90;;;;;;5072625;28;20187;-75
2022/01/27 07:40:31;;;;;;;1999.90;999.90;;;5.90;99.90;;;;;;5072619;28;20181;-74
2022/01/27 07:42:57;;;;;;;1999.90;999.90;;;5.90;99.90;;;;;;5072496;28;20800;-74
2022/01/27 07:45:22;;;;;;;1999.90;999.90;;;6.00;99.90;;;;;;5072339;28;20417;-74
2022/01/27 07:47:48;;;;;;;1999.90;999.90;;;6.00;99.90;;;;;;5072333;28;20441;-74
2022/01/27 07:50:14;;;;;;;1999.90;999.90;;;6.00;99.90;;;;;;5072580;28;20629;-74
2022/01/27 07:52:41;;;;;;;1999.90;999.90;;;6.10;99.90;;;;;;5072495;28;20170;-74
2022/01/27 07:55:10;;;;;;;1999.90;999.90;;;6.10;99.90;;;;;;5072112;28;20159;-74
2022/01/27 07:57:37;;;;;;;1999.90;999.90;;;6.20;99.90;;;;;;5072229;28;20429;-74
2022/01/27 08:00:07;;;;;;;1999.90;999.90;;;6.30;99.90;;;;;;5072252;28;20401;-75
2022/01/27 08:02:32;;;;;;;1999.90;999.90;;;6.20;99.90;;;;;;5069283;28;20751;-74
2022/01/27 08:04:58;;;;;;;1999.90;999.90;;;6.20;99.90;;;;;;5071184;28;20432;-74
2022/01/27 08:07:24;;;;;;;1999.90;999.90;;;6.20;99.90;;;;;;5072204;28;20202;-74
2022/01/27 08:09:49;;;;;;;1999.90;999.90;;;6.30;99.90;;;;;;5072086;28;20195;-75
2022/01/27 08:12:15;;;;;;;1999.90;999.90;;;6.30;99.90;;;;;;5072130;28;20173;-75
2022/01/27 08:14:41;;;;;;;1999.90;999.90;;;6.30;99.90;;;;;;5071734;28;20159;-74
2022/01/27 08:17:07;;;;;;;1999.90;999.90;;;6.30;99.90;;;;;;5071998;28;20160;-74
2022/01/27 08:19:32;;;;;;;1999.90;999.90;;;6.20;99.90;;;;;;5071973;28;20431;-74
2022/01/27 08:21:58;;;;;;;1999.90;999.90;;;6.30;99.90;;;;;;5072041;28;20409;-74
2022/01/27 08:24:24;;;;;;;1999.90;999.90;;;6.30;99.90;;;;;;5071757;28;20182;-74
2022/01/27 08:26:51;;;;;;;1999.90;999.90;;;6.30;99.90;;;;;;5071960;28;20624;-74
2022/01/27 08:29:24;;;;;;;1999.90;999.90;;;6.30;99.90;;;;;;5071879;28;20194;-74
2022/01/27 08:34:38;;;;;;;1999.90;999.90;;;6.30;99.90;;;;;;5071672;28;20765;-74
2022/01/27 08:37:04;;;;;;;1999.90;999.90;;;6.20;99.90;;;;;;5071941;28;20407;-74
2022/01/27 08:39:30;;;;;;;1999.90;999.90;;;6.20;99.90;;;;;;5071837;28;20491;-74
2022/01/27 08:41:57;;;;;;;1999.90;999.90;;;6.10;99.90;;;;;;5071785;28;20933;-74
2022/01/27 08:44:22;;;;;;;1999.90;999.90;;;6.10;99.90;;;;;;5071579;28;20405;-74
2022/01/27 08:46:48;;;;;;;1999.90;999.90;;;6.20;99.90;;;;;;5071725;28;20546;-74
2022/01/27 08:49:14;;;;;;;1999.90;999.90;;;6.20;99.90;;;;;;5071475;28;20286;-74
2022/01/27 08:51:40;;;;;;;1999.90;999.90;;;6.20;99.90;;;;;;5071775;28;20407;-74
2022/01/27 08:54:06;;;;;;;1999.90;999.90;;;6.20;99.90;;;;;;5071433;28;20476;-74
2022/01/27 08:56:31;;;;;;;1999.90;999.90;;;6.20;99.90;;;;;;5071680;28;20398;-74
2022/01/27 08:58:57;;;;;;;1999.90;999.90;;;6.20;99.90;;;;;;5071539;28;20676;-74
2022/01/27 09:01:27;;;;;;;1999.90;999.90;;;6.20;99.90;;;;;;5071706;28;20263;-73
2022/01/27 09:03:53;;;;;;;1999.90;999.90;;;6.20;99.90;;;;;;5071604;28;20755;-75
2022/01/27 09:06:19;;;;;;;1999.90;999.90;;;6.10;99.90;;;;;;5071350;28;20410;-74
2022/01/27 09:08:48;;;;;;;1999.90;999.90;;;6.10;99.90;;;;;;5071450;28;20908;-75
2022/01/27 09:11:14;;;;;;;1999.90;999.90;;;6.10;99.90;;;;;;5071489;28;20400;-75
2022/01/27 09:13:41;;;;;;;1999.90;999.90;;;6.10;99.90;;;;;;5071542;28;20735;-75
2022/01/27 09:16:08;;;;;;;1999.90;999.90;;;6.00;99.90;;;;;;5072618;28;20401;-74
2022/01/27 09:18:34;;;;;;;1999.90;999.90;;;6.00;99.90;;;;;;5075320;28;20432;-74
2022/01/27 09:21:04;;;;;;;1999.90;999.90;;;5.90;99.90;;;;;;5075439;28;20480;-74
2022/01/27 09:23:30;;;;;;;1999.90;999.90;;;5.90;99.90;;;;;;5075431;28;20159;-74
2022/01/27 09:26:02;;;;;;;1999.90;999.90;;;5.80;99.90;;;;;;5075093;28;20453;-72
2022/01/27 09:28:28;;;;;;;1999.90;999.90;;;5.70;99.90;;;;;;5075244;28;20286;-72
2022/01/27 09:30:54;;;;;;;1999.90;999.90;;;5.60;99.90;;;;;;5075237;28;20436;-72
2022/01/27 09:33:19;;;;;;;1999.90;999.90;;;5.60;99.90;;;;;;5075066;28;20159;-73
2022/01/27 09:35:45;;;;;;;1999.90;999.90;;;5.50;99.90;;;;;;5074942;28;20232;-73
2022/01/27 09:38:11;;;;;;;1999.90;999.90;;;5.50;99.90;;;;;;5074992;28;20191;-72
2022/01/27 09:40:37;;;;;;;1999.90;999.90;;;5.40;99.90;;;;;;5072787;28;20417;-71
2022/01/27 09:43:05;;;;;;;1999.90;999.90;;;5.40;99.90;;;;;;5074812;28;20450;-73
2022/01/27 09:45:36;;;;;;;1999.90;999.90;;;5.40;99.90;;;;;;5074597;28;20454;-74
2022/01/27 09:48:12;;;;;;;1999.90;999.90;;;5.40;99.90;;;;;;5074546;28;20440;-71
2022/01/27 09:53:13;;;;;;;1999.90;999.90;;;5.30;99.90;;;;;;5071231;28;20456;-72
2022/01/27 09:55:39;;;;;;;1999.90;999.90;;;5.30;99.90;;;;;;5059652;28;20676;-72
2022/01/27 09:58:06;;;;;;;1999.90;999.90;;;5.30;99.90;;;;;;5059835;28;20508;-74
2022/01/27 10:00:32;;;;;;;1999.90;999.90;;;5.30;99.90;;;;;;5062024;28;20176;-73
2022/01/27 10:03:08;;;;;;;1999.90;999.90;;;5.30;99.90;;;;;;5067200;28;20313;-73
2022/01/27 10:05:35;;;;;;;1999.90;999.90;;;5.30;99.90;;;;;;5074071;28;20409;-72
2022/01/27 10:08:15;;;;;;;1999.90;999.90;;;5.40;99.90;;;;;;5070740;28;20428;-72
2022/01/27 10:10:51;;;;;;;1999.90;999.90;;;5.40;99.90;;;;;;5074071;28;20412;-72
2022/01/27 10:13:32;;;;;;;1999.90;999.90;;;5.40;99.90;;;;;;5074099;28;20412;-71
2022/01/27 10:15:58;;;;;;;1999.90;999.90;;;5.40;99.90;;;;;;5064874;28;20591;-71
2022/01/27 10:18:25;;;;;;;1999.90;999.90;;;5.50;99.90;;;;;;5067870;28;20954;-71
2022/01/27 10:20:52;;;;;;;1999.90;999.90;;;5.50;99.90;;;;;;5056156;28;20946;-71
2022/01/27 10:23:28;;;;;;;1999.90;999.90;;;5.50;99.90;;;;;;5073915;28;20418;-71
2022/01/27 10:25:57;;;;;;;1999.90;999.90;;;5.50;99.90;;;;;;5074016;28;20408;-71
2022/01/27 10:28:45;;;;;;;1999.90;999.90;;;5.50;99.90;;;;;;5072941;28;20449;-71
2022/01/27 10:31:13;;;;;;;1999.90;999.90;;;5.50;99.90;;;;;;5054008;28;20552;-71
2022/01/27 10:33:58;;;;;;;1999.90;999.90;;;5.60;99.90;;;;;;5067574;28;20405;-72
2022/01/27 10:36:40;;;;;;;1999.90;999.90;;;5.60;99.90;;;;;;5067454;28;20413;-71
2022/01/27 10:39:09;;;;;;;1999.90;999.90;;;5.60;99.90;;;;;;5073730;28;20187;-71
2022/01/27 10:41:37;;;;;;;1999.90;999.90;;;5.60;99.90;;;;;;5074057;28;20808;-71
2022/01/27 10:44:15;;;;;;;1999.90;999.90;;;5.60;99.90;;;;;;5073303;28;20496;-72
2022/01/27 10:47:01;;;;;;;1999.90;999.90;;;5.70;99.90;;;;;;5071191;28;20876;-73
2022/01/27 10:49:36;;;;;;;1999.90;999.90;;;5.70;99.90;;;;;;5072856;28;20465;-72
2022/01/27 10:52:02;;;;;;;1999.90;999.90;;;5.70;99.90;;;;;;5073118;28;20458;-74
2022/01/27 10:54:41;;;;;;;1999.90;999.90;;;5.70;99.90;;;;;;5072542;28;20433;-73
2022/01/27 10:57:10;;;;;;;1999.90;999.90;;;5.80;99.90;;;;;;5073004;28;20388;-73
2022/01/27 10:59:36;;;;;;;1999.90;999.90;;;5.80;99.90;;;;;;5072585;28;20452;-73
2022/01/27 11:02:10;;;;;;;1999.90;999.90;;;5.80;99.90;;;;;;5072456;28;20496;-73
2022/01/27 11:04:41;;;;;;;1999.90;999.90;;;5.80;99.90;;;;;;5072596;28;20412;-73
2022/01/27 11:07:12;;;;;;;1999.90;999.90;;;5.90;99.90;;;;;;5067449;28;20555;-73
2022/01/27 11:09:44;;;;;;;1999.90;999.90;;;5.90;99.90;;;;;;5072133;28;20452;-73
2022/01/27 11:12:14;;;;;;;1999.90;999.90;;;5.90;99.90;;;;;;5072914;28;20386;-73
2022/01/27 11:14:40;;;;;;;1999.90;999.90;;;5.90;99.90;;;;;;5072484;28;20763;-73
2022/01/27 11:17:10;;;;;;;1999.90;999.90;;;5.90;99.90;;;;;;5072090;28;20649;-73
2022/01/27 11:27:38;;;;;;;1999.90;999.90;;;6.00;99.90;;;;;;5071868;28;20432;-73
2022/01/27 11:30:11;;;;;;;1999.90;999.90;;;6.10;99.90;;;;;;5071913;28;20463;-73
2022/01/27 11:33:16;;;;;;;1999.90;999.90;;;6.00;99.90;;;;;;5072110;28;20450;-74
2022/01/27 11:35:43;;;;;;;1999.90;999.90;;;6.10;99.90;;;;;;5070496;28;20414;-74
2022/01/27 11:38:09;;;;;;;1999.90;999.90;;;6.10;99.90;;;;;;5053843;28;20771;-74
2022/01/27 11:40:43;;;;;;;1999.90;999.90;;;6.10;99.90;;;;;;5072124;28;20404;-74
2022/01/27 11:43:17;;;;;;;1999.90;999.90;;;6.10;99.90;;;;;;5072222;28;20494;-74
2022/01/27 11:45:52;;;;;;;1999.90;999.90;;;6.20;99.90;;;;;;5071659;28;20401;-74
2022/01/27 11:48:24;;;;;;;1999.90;999.90;;;6.20;99.90;;;;;;5072132;28;20475;-74
2022/01/27 11:50:53;;;;;;;1999.90;999.90;;;6.20;99.90;;;;;;5071929;28;20829;-74
2022/01/27 11:53:33;;;;;;;1999.90;999.90;;;6.20;99.90;;;;;;5071775;28;20402;-73
2022/01/27 11:56:05;;;;;;;1999.90;999.90;;;6.20;99.90;;;;;;5071845;28;20804;-74
2022/01/27 11:58:43;;;;;;;1999.90;999.90;;;6.20;99.90;;;;;;5071835;28;20467;-74
2022/01/27 12:01:35;;;;;;;1999.90;999.90;;;6.30;99.90;;;;;;5071511;28;20429;-74
2022/01/27 12:04:07;;;;;;;1999.90;999.90;;;6.30;99.90;;;;;;5067839;28;20414;-73
2022/01/27 12:06:48;;;;;;;1999.90;999.90;;;6.30;99.90;;;;;;5071345;28;20408;-74
2022/01/27 12:09:20;;;;;;;1999.90;999.90;;;6.30;99.90;;;;;;5070818;28;20827;-73
2022/01/27 12:11:59;;;;;;;1999.90;999.90;;;6.30;99.90;;;;;;5071767;28;20401;-73
2022/01/27 12:14:33;;;;;;;1999.90;999.90;;;6.40;99.90;;;;;;5071061;28;20744;-73
2022/01/27 12:17:08;;;;;;;1999.90;999.90;;;6.40;99.90;;;;;;5070010;28;20412;-74
2022/01/27 12:19:47;;;;;;;1999.90;999.90;;;6.40;99.90;;;;;;5071297;28;20432;-74
2022/01/27 12:22:15;;;;;;;1999.90;999.90;;;6.40;99.90;;;;;;5071066;28;20774;-73
2022/01/27 12:24:52;;;;;;;1999.90;999.90;;;6.40;99.90;;;;;;5071206;28;20479;-73
2022/01/27 12:27:18;;;;;;;1999.90;999.90;;;6.40;99.90;;;;;;5071459;28;20680;-74
2022/01/27 12:29:49;;;;;;;1999.90;999.90;;;6.40;99.90;;;;;;5070901;28;20449;-73
2022/01/27 12:32:22;;;;;;;1999.90;999.90;;;6.40;99.90;;;;;;5071375;28;20410;-73
2022/01/27 12:34:48;;;;;;;1999.90;999.90;;;6.50;99.90;;;;;;5070997;28;20766;-73
2022/01/27 12:37:14;;;;;;;1999.90;999.90;;;6.50;99.90;;;;;;5070968;28;20397;-73
2022/01/27 12:39:48;;;;;;;1999.90;999.90;;;6.50;99.90;;;;;;5071216;28;20167;-74
2022/01/27 12:42:16;;;;;;;1999.90;999.90;;;6.40;99.90;;;;;;5071233;28;20425;-73
2022/01/27 12:45:01;;;;;;;1999.90;999.90;;;6.50;99.90;;;;;;5070471;28;20409;-73
2022/01/27 12:47:30;;;;;;;1999.90;999.90;;;6.50;99.90;;;;;;5071201;28;20447;-73
2022/01/27 12:50:07;;;;;;;1999.90;999.90;;;6.50;99.90;;;;;;5071065;28;20961;-74
2022/01/27 12:52:39;;;;;;;1999.90;999.90;;;6.50;99.90;;;;;;5074798;28;20397;-74
2022/01/27 12:55:07;;;;;;;1999.90;999.90;;;6.50;99.90;;;;;;5075074;28;20897;-73
2022/01/27 12:57:33;;;;;;;1999.90;999.90;;;6.60;99.90;;;;;;5074918;28;20405;-73
2022/01/27 13:00:00;;;;;;;1999.90;999.90;;;6.60;99.90;;;;;;5074720;28;20439;-73
2022/01/27 13:02:28;;;;;;;1999.90;999.90;;;6.70;99.90;;;;;;5075291;28;20981;-73
2022/01/27 13:04:58;;;;;;;1999.90;999.90;;;6.70;99.90;;;;;;5075264;28;20417;-72